<?xml version="1.0" encoding="UTF-8" standalone="no" ?>
<gpx xmlns="http://www.topografix.com/GPX/1/1" xmlns:xsi="http://www.w3.org/2001/XMLSchema-instance" xsi:schemaLocation="http://www.topografix.com/GPX/1/1 http://www.topografix.com/GPX/1/1/gpx.xsd" version="1.1" creator="VisuGPX - https://www.visugpx.com">
  <metadata>
    <name>reco entrainement tignes 2011</name>
    <desc><![CDATA[Parcours sur Tignes. ]]></desc>
  </metadata>
  <wpt lat="38.85555" lon="-94.79902">
    <ele>3.01</ele>
    <name><![CDATA[GARMIN]]></name>
  </wpt>
  <wpt lat="50.98288" lon="-1.4639">
    <ele>3.01</ele>
    <name><![CDATA[GRMEUR]]></name>
  </wpt>
  <wpt lat="25.06178" lon="121.64027">
    <ele>3.01</ele>
    <name><![CDATA[GRMTWN]]></name>
  </wpt>
  <trk>
    <name><![CDATA[ACTIVE LOG: 26 JUN 2011 14:12]]></name>
    <trkseg>
      <trkpt lat="45.50839" lon="6.91987">
        <ele>1564.68</ele>
        <time>2011-06-26T12:12:11Z</time>
      </trkpt>
      <trkpt lat="45.50836" lon="6.91986">
        <ele>1548.34</ele>
        <time>2011-06-26T12:12:13Z</time>
      </trkpt>
      <trkpt lat="45.50835" lon="6.91984">
        <ele>1548.34</ele>
        <time>2011-06-26T12:12:14Z</time>
      </trkpt>
      <trkpt lat="45.50851" lon="6.91978">
        <ele>1549.3</ele>
        <time>2011-06-26T12:12:27Z</time>
      </trkpt>
      <trkpt lat="45.50859" lon="6.91978">
        <ele>1549.78</ele>
        <time>2011-06-26T12:12:31Z</time>
      </trkpt>
      <trkpt lat="45.50889" lon="6.91977">
        <ele>1549.78</ele>
        <time>2011-06-26T12:12:44Z</time>
      </trkpt>
      <trkpt lat="45.50909" lon="6.91976">
        <ele>1550.26</ele>
        <time>2011-06-26T12:12:55Z</time>
      </trkpt>
      <trkpt lat="45.50929" lon="6.91989">
        <ele>1549.78</ele>
        <time>2011-06-26T12:13:09Z</time>
      </trkpt>
      <trkpt lat="45.50958" lon="6.91999">
        <ele>1550.26</ele>
        <time>2011-06-26T12:13:26Z</time>
      </trkpt>
      <trkpt lat="45.50984" lon="6.91993">
        <ele>1551.71</ele>
        <time>2011-06-26T12:13:37Z</time>
      </trkpt>
      <trkpt lat="45.51005" lon="6.91983">
        <ele>1550.74</ele>
        <time>2011-06-26T12:13:48Z</time>
      </trkpt>
      <trkpt lat="45.51031" lon="6.91965">
        <ele>1550.74</ele>
        <time>2011-06-26T12:14:01Z</time>
      </trkpt>
      <trkpt lat="45.51039" lon="6.91953">
        <ele>1551.71</ele>
        <time>2011-06-26T12:14:06Z</time>
      </trkpt>
      <trkpt lat="45.51041" lon="6.91947">
        <ele>1551.22</ele>
        <time>2011-06-26T12:14:08Z</time>
      </trkpt>
      <trkpt lat="45.51044" lon="6.91935">
        <ele>1552.67</ele>
        <time>2011-06-26T12:14:12Z</time>
      </trkpt>
      <trkpt lat="45.51049" lon="6.91926">
        <ele>1551.71</ele>
        <time>2011-06-26T12:14:16Z</time>
      </trkpt>
      <trkpt lat="45.51063" lon="6.91901">
        <ele>1552.67</ele>
        <time>2011-06-26T12:14:27Z</time>
      </trkpt>
      <trkpt lat="45.51073" lon="6.9187">
        <ele>1552.67</ele>
        <time>2011-06-26T12:14:38Z</time>
      </trkpt>
      <trkpt lat="45.51084" lon="6.91844">
        <ele>1552.67</ele>
        <time>2011-06-26T12:14:48Z</time>
      </trkpt>
      <trkpt lat="45.51096" lon="6.91816">
        <ele>1553.63</ele>
        <time>2011-06-26T12:14:59Z</time>
      </trkpt>
      <trkpt lat="45.511" lon="6.91804">
        <ele>1553.63</ele>
        <time>2011-06-26T12:15:04Z</time>
      </trkpt>
      <trkpt lat="45.51105" lon="6.9179">
        <ele>1553.63</ele>
        <time>2011-06-26T12:15:10Z</time>
      </trkpt>
      <trkpt lat="45.51107" lon="6.91785">
        <ele>1553.63</ele>
        <time>2011-06-26T12:15:12Z</time>
      </trkpt>
      <trkpt lat="45.51113" lon="6.91773">
        <ele>1554.11</ele>
        <time>2011-06-26T12:15:17Z</time>
      </trkpt>
      <trkpt lat="45.51128" lon="6.91747">
        <ele>1554.59</ele>
        <time>2011-06-26T12:15:29Z</time>
      </trkpt>
      <trkpt lat="45.51137" lon="6.91734">
        <ele>1554.59</ele>
        <time>2011-06-26T12:15:35Z</time>
      </trkpt>
      <trkpt lat="45.51153" lon="6.91701">
        <ele>1555.07</ele>
        <time>2011-06-26T12:15:48Z</time>
      </trkpt>
      <trkpt lat="45.51168" lon="6.91676">
        <ele>1554.59</ele>
        <time>2011-06-26T12:15:59Z</time>
      </trkpt>
      <trkpt lat="45.51187" lon="6.91657">
        <ele>1555.07</ele>
        <time>2011-06-26T12:16:10Z</time>
      </trkpt>
      <trkpt lat="45.512" lon="6.91648">
        <ele>1554.59</ele>
        <time>2011-06-26T12:16:16Z</time>
      </trkpt>
      <trkpt lat="45.51211" lon="6.91643">
        <ele>1555.07</ele>
        <time>2011-06-26T12:16:22Z</time>
      </trkpt>
      <trkpt lat="45.51216" lon="6.91639">
        <ele>1554.11</ele>
        <time>2011-06-26T12:16:25Z</time>
      </trkpt>
      <trkpt lat="45.51218" lon="6.91637">
        <ele>1555.07</ele>
        <time>2011-06-26T12:16:26Z</time>
      </trkpt>
      <trkpt lat="45.51227" lon="6.91632">
        <ele>1554.59</ele>
        <time>2011-06-26T12:16:31Z</time>
      </trkpt>
      <trkpt lat="45.51235" lon="6.91627">
        <ele>1555.07</ele>
        <time>2011-06-26T12:16:35Z</time>
      </trkpt>
      <trkpt lat="45.51243" lon="6.91623">
        <ele>1553.15</ele>
        <time>2011-06-26T12:16:39Z</time>
      </trkpt>
      <trkpt lat="45.51255" lon="6.91616">
        <ele>1550.26</ele>
        <time>2011-06-26T12:16:45Z</time>
      </trkpt>
      <trkpt lat="45.51259" lon="6.91614">
        <ele>1554.11</ele>
        <time>2011-06-26T12:16:47Z</time>
      </trkpt>
      <trkpt lat="45.51284" lon="6.91602">
        <ele>1553.63</ele>
        <time>2011-06-26T12:16:58Z</time>
      </trkpt>
      <trkpt lat="45.51304" lon="6.91586">
        <ele>1554.11</ele>
        <time>2011-06-26T12:17:09Z</time>
      </trkpt>
      <trkpt lat="45.51312" lon="6.91583">
        <ele>1553.15</ele>
        <time>2011-06-26T12:17:13Z</time>
      </trkpt>
      <trkpt lat="45.51316" lon="6.91582">
        <ele>1555.07</ele>
        <time>2011-06-26T12:17:15Z</time>
      </trkpt>
      <trkpt lat="45.51343" lon="6.91566">
        <ele>1554.59</ele>
        <time>2011-06-26T12:17:27Z</time>
      </trkpt>
      <trkpt lat="45.5137" lon="6.91549">
        <ele>1555.07</ele>
        <time>2011-06-26T12:17:39Z</time>
      </trkpt>
      <trkpt lat="45.51396" lon="6.91535">
        <ele>1556.03</ele>
        <time>2011-06-26T12:17:51Z</time>
      </trkpt>
      <trkpt lat="45.51417" lon="6.91523">
        <ele>1556.03</ele>
        <time>2011-06-26T12:18:02Z</time>
      </trkpt>
      <trkpt lat="45.51423" lon="6.91517">
        <ele>1553.63</ele>
        <time>2011-06-26T12:18:07Z</time>
      </trkpt>
      <trkpt lat="45.51428" lon="6.91507">
        <ele>1550.74</ele>
        <time>2011-06-26T12:18:16Z</time>
      </trkpt>
      <trkpt lat="45.51437" lon="6.91495">
        <ele>1549.78</ele>
        <time>2011-06-26T12:18:23Z</time>
      </trkpt>
      <trkpt lat="45.51441" lon="6.91491">
        <ele>1549.3</ele>
        <time>2011-06-26T12:18:26Z</time>
      </trkpt>
      <trkpt lat="45.51454" lon="6.91484">
        <ele>1548.82</ele>
        <time>2011-06-26T12:18:33Z</time>
      </trkpt>
      <trkpt lat="45.51461" lon="6.91478">
        <ele>1547.86</ele>
        <time>2011-06-26T12:18:38Z</time>
      </trkpt>
      <trkpt lat="45.51471" lon="6.91475">
        <ele>1548.34</ele>
        <time>2011-06-26T12:18:43Z</time>
      </trkpt>
      <trkpt lat="45.51481" lon="6.91477">
        <ele>1549.3</ele>
        <time>2011-06-26T12:18:50Z</time>
      </trkpt>
      <trkpt lat="45.51495" lon="6.91486">
        <ele>1547.86</ele>
        <time>2011-06-26T12:18:58Z</time>
      </trkpt>
      <trkpt lat="45.51516" lon="6.91488">
        <ele>1548.34</ele>
        <time>2011-06-26T12:19:08Z</time>
      </trkpt>
      <trkpt lat="45.5152" lon="6.91487">
        <ele>1548.34</ele>
        <time>2011-06-26T12:19:10Z</time>
      </trkpt>
      <trkpt lat="45.51528" lon="6.91483">
        <ele>1547.86</ele>
        <time>2011-06-26T12:19:14Z</time>
      </trkpt>
      <trkpt lat="45.51532" lon="6.91481">
        <ele>1549.3</ele>
        <time>2011-06-26T12:19:16Z</time>
      </trkpt>
      <trkpt lat="45.51544" lon="6.91464">
        <ele>1549.78</ele>
        <time>2011-06-26T12:19:27Z</time>
      </trkpt>
      <trkpt lat="45.51554" lon="6.91456">
        <ele>1548.82</ele>
        <time>2011-06-26T12:19:32Z</time>
      </trkpt>
      <trkpt lat="45.51568" lon="6.9145">
        <ele>1547.86</ele>
        <time>2011-06-26T12:19:39Z</time>
      </trkpt>
      <trkpt lat="45.51576" lon="6.91446">
        <ele>1546.42</ele>
        <time>2011-06-26T12:19:43Z</time>
      </trkpt>
      <trkpt lat="45.51584" lon="6.9144">
        <ele>1544.98</ele>
        <time>2011-06-26T12:19:47Z</time>
      </trkpt>
      <trkpt lat="45.51587" lon="6.91437">
        <ele>1543.53</ele>
        <time>2011-06-26T12:19:49Z</time>
      </trkpt>
      <trkpt lat="45.51603" lon="6.91427">
        <ele>1542.57</ele>
        <time>2011-06-26T12:19:57Z</time>
      </trkpt>
      <trkpt lat="45.51606" lon="6.9142">
        <ele>1541.61</ele>
        <time>2011-06-26T12:19:59Z</time>
      </trkpt>
      <trkpt lat="45.51615" lon="6.91408">
        <ele>1540.65</ele>
        <time>2011-06-26T12:20:04Z</time>
      </trkpt>
      <trkpt lat="45.51623" lon="6.91402">
        <ele>1540.17</ele>
        <time>2011-06-26T12:20:08Z</time>
      </trkpt>
      <trkpt lat="45.51625" lon="6.91396">
        <ele>1539.69</ele>
        <time>2011-06-26T12:20:17Z</time>
      </trkpt>
      <trkpt lat="45.51634" lon="6.91383">
        <ele>1539.21</ele>
        <time>2011-06-26T12:20:38Z</time>
      </trkpt>
      <trkpt lat="45.51638" lon="6.91363">
        <ele>1535.36</ele>
        <time>2011-06-26T12:20:47Z</time>
      </trkpt>
      <trkpt lat="45.51643" lon="6.91358">
        <ele>1534.88</ele>
        <time>2011-06-26T12:20:52Z</time>
      </trkpt>
      <trkpt lat="45.51645" lon="6.9136">
        <ele>1535.36</ele>
        <time>2011-06-26T12:20:59Z</time>
      </trkpt>
      <trkpt lat="45.51642" lon="6.91369">
        <ele>1536.32</ele>
        <time>2011-06-26T12:21:06Z</time>
      </trkpt>
      <trkpt lat="45.51637" lon="6.91377">
        <ele>1537.29</ele>
        <time>2011-06-26T12:21:12Z</time>
      </trkpt>
      <trkpt lat="45.51636" lon="6.9138">
        <ele>1538.25</ele>
        <time>2011-06-26T12:21:14Z</time>
      </trkpt>
      <trkpt lat="45.51635" lon="6.91389">
        <ele>1538.73</ele>
        <time>2011-06-26T12:21:22Z</time>
      </trkpt>
      <trkpt lat="45.51639" lon="6.91385">
        <ele>1539.69</ele>
        <time>2011-06-26T12:21:26Z</time>
      </trkpt>
      <trkpt lat="45.51648" lon="6.91373">
        <ele>1540.17</ele>
        <time>2011-06-26T12:21:34Z</time>
      </trkpt>
      <trkpt lat="45.51663" lon="6.9137">
        <ele>1539.69</ele>
        <time>2011-06-26T12:21:46Z</time>
      </trkpt>
      <trkpt lat="45.51669" lon="6.91361">
        <ele>1539.69</ele>
        <time>2011-06-26T12:21:53Z</time>
      </trkpt>
      <trkpt lat="45.51684" lon="6.91346">
        <ele>1541.13</ele>
        <time>2011-06-26T12:22:08Z</time>
      </trkpt>
      <trkpt lat="45.51686" lon="6.91346">
        <ele>1540.65</ele>
        <time>2011-06-26T12:22:09Z</time>
      </trkpt>
      <trkpt lat="45.5169" lon="6.91344">
        <ele>1541.13</ele>
        <time>2011-06-26T12:22:12Z</time>
      </trkpt>
      <trkpt lat="45.51705" lon="6.91343">
        <ele>1540.65</ele>
        <time>2011-06-26T12:22:22Z</time>
      </trkpt>
      <trkpt lat="45.51707" lon="6.91344">
        <ele>1540.65</ele>
        <time>2011-06-26T12:22:23Z</time>
      </trkpt>
      <trkpt lat="45.51726" lon="6.91326">
        <ele>1542.57</ele>
        <time>2011-06-26T12:22:40Z</time>
      </trkpt>
      <trkpt lat="45.51734" lon="6.91324">
        <ele>1543.05</ele>
        <time>2011-06-26T12:22:45Z</time>
      </trkpt>
      <trkpt lat="45.51737" lon="6.91322">
        <ele>1543.05</ele>
        <time>2011-06-26T12:22:47Z</time>
      </trkpt>
      <trkpt lat="45.51738" lon="6.91302">
        <ele>1541.61</ele>
        <time>2011-06-26T12:22:57Z</time>
      </trkpt>
      <trkpt lat="45.51741" lon="6.91298">
        <ele>1537.77</ele>
        <time>2011-06-26T12:23:03Z</time>
      </trkpt>
      <trkpt lat="45.51745" lon="6.91298">
        <ele>1536.8</ele>
        <time>2011-06-26T12:23:06Z</time>
      </trkpt>
      <trkpt lat="45.51748" lon="6.91298">
        <ele>1534.4</ele>
        <time>2011-06-26T12:23:09Z</time>
      </trkpt>
      <trkpt lat="45.51763" lon="6.913">
        <ele>1533.92</ele>
        <time>2011-06-26T12:23:13Z</time>
      </trkpt>
      <trkpt lat="45.5177" lon="6.91301">
        <ele>1533.92</ele>
        <time>2011-06-26T12:23:15Z</time>
      </trkpt>
      <trkpt lat="45.51785" lon="6.913">
        <ele>1533.44</ele>
        <time>2011-06-26T12:23:25Z</time>
      </trkpt>
      <trkpt lat="45.5179" lon="6.91299">
        <ele>1531.52</ele>
        <time>2011-06-26T12:23:33Z</time>
      </trkpt>
      <trkpt lat="45.51796" lon="6.91298">
        <ele>1531.52</ele>
        <time>2011-06-26T12:23:38Z</time>
      </trkpt>
      <trkpt lat="45.51801" lon="6.91299">
        <ele>1531.04</ele>
        <time>2011-06-26T12:23:42Z</time>
      </trkpt>
      <trkpt lat="45.51804" lon="6.91299">
        <ele>1531.04</ele>
        <time>2011-06-26T12:23:44Z</time>
      </trkpt>
      <trkpt lat="45.51808" lon="6.91292">
        <ele>1529.11</ele>
        <time>2011-06-26T12:23:52Z</time>
      </trkpt>
      <trkpt lat="45.51814" lon="6.91293">
        <ele>1528.63</ele>
        <time>2011-06-26T12:23:55Z</time>
      </trkpt>
      <trkpt lat="45.51839" lon="6.91314">
        <ele>1528.15</ele>
        <time>2011-06-26T12:24:04Z</time>
      </trkpt>
      <trkpt lat="45.51847" lon="6.91322">
        <ele>1530.56</ele>
        <time>2011-06-26T12:24:13Z</time>
      </trkpt>
      <trkpt lat="45.51852" lon="6.91319">
        <ele>1530.56</ele>
        <time>2011-06-26T12:24:27Z</time>
      </trkpt>
      <trkpt lat="45.51852" lon="6.91319">
        <ele>1529.59</ele>
        <time>2011-06-26T12:24:33Z</time>
      </trkpt>
      <trkpt lat="45.51854" lon="6.91318">
        <ele>1529.59</ele>
        <time>2011-06-26T12:24:36Z</time>
      </trkpt>
      <trkpt lat="45.5186" lon="6.91315">
        <ele>1530.56</ele>
        <time>2011-06-26T12:24:41Z</time>
      </trkpt>
      <trkpt lat="45.51863" lon="6.91307">
        <ele>1531.52</ele>
        <time>2011-06-26T12:24:46Z</time>
      </trkpt>
      <trkpt lat="45.51866" lon="6.91302">
        <ele>1531.52</ele>
        <time>2011-06-26T12:24:55Z</time>
      </trkpt>
      <trkpt lat="45.51878" lon="6.91295">
        <ele>1532</ele>
        <time>2011-06-26T12:25:06Z</time>
      </trkpt>
      <trkpt lat="45.51896" lon="6.91289">
        <ele>1532</ele>
        <time>2011-06-26T12:25:18Z</time>
      </trkpt>
      <trkpt lat="45.51901" lon="6.91287">
        <ele>1531.52</ele>
        <time>2011-06-26T12:25:21Z</time>
      </trkpt>
      <trkpt lat="45.51913" lon="6.91285">
        <ele>1531.04</ele>
        <time>2011-06-26T12:25:27Z</time>
      </trkpt>
      <trkpt lat="45.51921" lon="6.91281">
        <ele>1531.04</ele>
        <time>2011-06-26T12:25:32Z</time>
      </trkpt>
      <trkpt lat="45.51928" lon="6.9128">
        <ele>1529.59</ele>
        <time>2011-06-26T12:25:36Z</time>
      </trkpt>
      <trkpt lat="45.51931" lon="6.91282">
        <ele>1528.63</ele>
        <time>2011-06-26T12:25:38Z</time>
      </trkpt>
      <trkpt lat="45.51943" lon="6.91284">
        <ele>1528.15</ele>
        <time>2011-06-26T12:25:43Z</time>
      </trkpt>
      <trkpt lat="45.51951" lon="6.91278">
        <ele>1527.19</ele>
        <time>2011-06-26T12:25:47Z</time>
      </trkpt>
      <trkpt lat="45.51967" lon="6.91262">
        <ele>1528.63</ele>
        <time>2011-06-26T12:25:58Z</time>
      </trkpt>
      <trkpt lat="45.51971" lon="6.91254">
        <ele>1524.31</ele>
        <time>2011-06-26T12:26:02Z</time>
      </trkpt>
      <trkpt lat="45.51974" lon="6.91253">
        <ele>1523.83</ele>
        <time>2011-06-26T12:26:05Z</time>
      </trkpt>
      <trkpt lat="45.51977" lon="6.91252">
        <ele>1523.83</ele>
        <time>2011-06-26T12:26:07Z</time>
      </trkpt>
      <trkpt lat="45.5198" lon="6.91247">
        <ele>1522.87</ele>
        <time>2011-06-26T12:26:12Z</time>
      </trkpt>
      <trkpt lat="45.51979" lon="6.91246">
        <ele>1524.31</ele>
        <time>2011-06-26T12:26:13Z</time>
      </trkpt>
      <trkpt lat="45.51979" lon="6.91238">
        <ele>1523.83</ele>
        <time>2011-06-26T12:26:26Z</time>
      </trkpt>
      <trkpt lat="45.5198" lon="6.91234">
        <ele>1524.31</ele>
        <time>2011-06-26T12:26:29Z</time>
      </trkpt>
      <trkpt lat="45.51984" lon="6.91221">
        <ele>1525.27</ele>
        <time>2011-06-26T12:26:37Z</time>
      </trkpt>
      <trkpt lat="45.51988" lon="6.91217">
        <ele>1527.19</ele>
        <time>2011-06-26T12:26:43Z</time>
      </trkpt>
      <trkpt lat="45.51999" lon="6.91208">
        <ele>1531.04</ele>
        <time>2011-06-26T12:26:57Z</time>
      </trkpt>
      <trkpt lat="45.52" lon="6.91207">
        <ele>1531.52</ele>
        <time>2011-06-26T12:26:58Z</time>
      </trkpt>
      <trkpt lat="45.52013" lon="6.91207">
        <ele>1533.44</ele>
        <time>2011-06-26T12:27:09Z</time>
      </trkpt>
      <trkpt lat="45.52015" lon="6.91206">
        <ele>1533.44</ele>
        <time>2011-06-26T12:27:11Z</time>
      </trkpt>
      <trkpt lat="45.52022" lon="6.91208">
        <ele>1534.88</ele>
        <time>2011-06-26T12:27:19Z</time>
      </trkpt>
      <trkpt lat="45.52031" lon="6.91203">
        <ele>1536.8</ele>
        <time>2011-06-26T12:27:28Z</time>
      </trkpt>
      <trkpt lat="45.52039" lon="6.91202">
        <ele>1536.32</ele>
        <time>2011-06-26T12:27:34Z</time>
      </trkpt>
      <trkpt lat="45.5206" lon="6.91199">
        <ele>1538.73</ele>
        <time>2011-06-26T12:27:48Z</time>
      </trkpt>
      <trkpt lat="45.52077" lon="6.91194">
        <ele>1540.65</ele>
        <time>2011-06-26T12:28:04Z</time>
      </trkpt>
      <trkpt lat="45.52081" lon="6.91194">
        <ele>1540.65</ele>
        <time>2011-06-26T12:28:07Z</time>
      </trkpt>
      <trkpt lat="45.52085" lon="6.91192">
        <ele>1540.65</ele>
        <time>2011-06-26T12:28:10Z</time>
      </trkpt>
      <trkpt lat="45.52097" lon="6.9119">
        <ele>1541.13</ele>
        <time>2011-06-26T12:28:21Z</time>
      </trkpt>
      <trkpt lat="45.52102" lon="6.91188">
        <ele>1541.13</ele>
        <time>2011-06-26T12:28:25Z</time>
      </trkpt>
      <trkpt lat="45.52122" lon="6.91183">
        <ele>1540.65</ele>
        <time>2011-06-26T12:28:37Z</time>
      </trkpt>
      <trkpt lat="45.52128" lon="6.9118">
        <ele>1541.13</ele>
        <time>2011-06-26T12:28:41Z</time>
      </trkpt>
      <trkpt lat="45.52152" lon="6.91168">
        <ele>1542.09</ele>
        <time>2011-06-26T12:28:55Z</time>
      </trkpt>
      <trkpt lat="45.52167" lon="6.91156">
        <ele>1543.53</ele>
        <time>2011-06-26T12:29:06Z</time>
      </trkpt>
      <trkpt lat="45.52187" lon="6.91141">
        <ele>1543.05</ele>
        <time>2011-06-26T12:29:21Z</time>
      </trkpt>
      <trkpt lat="45.52197" lon="6.91134">
        <ele>1541.61</ele>
        <time>2011-06-26T12:29:26Z</time>
      </trkpt>
      <trkpt lat="45.52212" lon="6.91126">
        <ele>1538.25</ele>
        <time>2011-06-26T12:29:35Z</time>
      </trkpt>
      <trkpt lat="45.52218" lon="6.91123">
        <ele>1539.69</ele>
        <time>2011-06-26T12:29:38Z</time>
      </trkpt>
      <trkpt lat="45.52231" lon="6.9111">
        <ele>1537.29</ele>
        <time>2011-06-26T12:29:46Z</time>
      </trkpt>
      <trkpt lat="45.52248" lon="6.91099">
        <ele>1535.84</ele>
        <time>2011-06-26T12:29:54Z</time>
      </trkpt>
      <trkpt lat="45.52252" lon="6.91095">
        <ele>1535.84</ele>
        <time>2011-06-26T12:29:56Z</time>
      </trkpt>
      <trkpt lat="45.5226" lon="6.91084">
        <ele>1535.84</ele>
        <time>2011-06-26T12:30:02Z</time>
      </trkpt>
      <trkpt lat="45.52274" lon="6.91064">
        <ele>1535.36</ele>
        <time>2011-06-26T12:30:12Z</time>
      </trkpt>
      <trkpt lat="45.52285" lon="6.91059">
        <ele>1534.88</ele>
        <time>2011-06-26T12:30:17Z</time>
      </trkpt>
      <trkpt lat="45.52298" lon="6.91052">
        <ele>1532.48</ele>
        <time>2011-06-26T12:30:23Z</time>
      </trkpt>
      <trkpt lat="45.52319" lon="6.91045">
        <ele>1533.44</ele>
        <time>2011-06-26T12:30:34Z</time>
      </trkpt>
      <trkpt lat="45.52321" lon="6.91044">
        <ele>1533.92</ele>
        <time>2011-06-26T12:30:35Z</time>
      </trkpt>
      <trkpt lat="45.52339" lon="6.9103">
        <ele>1534.4</ele>
        <time>2011-06-26T12:30:47Z</time>
      </trkpt>
      <trkpt lat="45.5234" lon="6.91028">
        <ele>1534.88</ele>
        <time>2011-06-26T12:30:48Z</time>
      </trkpt>
      <trkpt lat="45.52362" lon="6.91013">
        <ele>1534.4</ele>
        <time>2011-06-26T12:31:00Z</time>
      </trkpt>
      <trkpt lat="45.52375" lon="6.90993">
        <ele>1534.88</ele>
        <time>2011-06-26T12:31:10Z</time>
      </trkpt>
      <trkpt lat="45.52397" lon="6.90982">
        <ele>1535.84</ele>
        <time>2011-06-26T12:31:22Z</time>
      </trkpt>
      <trkpt lat="45.52401" lon="6.90979">
        <ele>1534.88</ele>
        <time>2011-06-26T12:31:24Z</time>
      </trkpt>
      <trkpt lat="45.52417" lon="6.90971">
        <ele>1534.88</ele>
        <time>2011-06-26T12:31:35Z</time>
      </trkpt>
      <trkpt lat="45.52419" lon="6.9097">
        <ele>1535.84</ele>
        <time>2011-06-26T12:31:37Z</time>
      </trkpt>
      <trkpt lat="45.52422" lon="6.90968">
        <ele>1537.29</ele>
        <time>2011-06-26T12:31:40Z</time>
      </trkpt>
      <trkpt lat="45.52427" lon="6.90965">
        <ele>1537.77</ele>
        <time>2011-06-26T12:31:45Z</time>
      </trkpt>
      <trkpt lat="45.5244" lon="6.90956">
        <ele>1539.21</ele>
        <time>2011-06-26T12:31:55Z</time>
      </trkpt>
      <trkpt lat="45.52453" lon="6.90947">
        <ele>1537.77</ele>
        <time>2011-06-26T12:32:05Z</time>
      </trkpt>
      <trkpt lat="45.52469" lon="6.9093">
        <ele>1538.25</ele>
        <time>2011-06-26T12:32:19Z</time>
      </trkpt>
      <trkpt lat="45.52471" lon="6.90928">
        <ele>1539.21</ele>
        <time>2011-06-26T12:32:21Z</time>
      </trkpt>
      <trkpt lat="45.52474" lon="6.90925">
        <ele>1539.69</ele>
        <time>2011-06-26T12:32:24Z</time>
      </trkpt>
      <trkpt lat="45.52478" lon="6.90919">
        <ele>1540.17</ele>
        <time>2011-06-26T12:32:29Z</time>
      </trkpt>
      <trkpt lat="45.52499" lon="6.90911">
        <ele>1543.05</ele>
        <time>2011-06-26T12:32:44Z</time>
      </trkpt>
      <trkpt lat="45.52505" lon="6.9091">
        <ele>1542.09</ele>
        <time>2011-06-26T12:32:47Z</time>
      </trkpt>
      <trkpt lat="45.52518" lon="6.909">
        <ele>1542.57</ele>
        <time>2011-06-26T12:32:56Z</time>
      </trkpt>
      <trkpt lat="45.52527" lon="6.90897">
        <ele>1541.61</ele>
        <time>2011-06-26T12:33:00Z</time>
      </trkpt>
      <trkpt lat="45.52552" lon="6.90901">
        <ele>1540.65</ele>
        <time>2011-06-26T12:33:12Z</time>
      </trkpt>
      <trkpt lat="45.52568" lon="6.90899">
        <ele>1541.13</ele>
        <time>2011-06-26T12:33:23Z</time>
      </trkpt>
      <trkpt lat="45.5257" lon="6.90897">
        <ele>1545.46</ele>
        <time>2011-06-26T12:33:26Z</time>
      </trkpt>
      <trkpt lat="45.52571" lon="6.90896">
        <ele>1541.13</ele>
        <time>2011-06-26T12:33:27Z</time>
      </trkpt>
      <trkpt lat="45.52574" lon="6.90894">
        <ele>1544.5</ele>
        <time>2011-06-26T12:33:30Z</time>
      </trkpt>
      <trkpt lat="45.52575" lon="6.90894">
        <ele>1544.98</ele>
        <time>2011-06-26T12:33:31Z</time>
      </trkpt>
      <trkpt lat="45.52577" lon="6.90892">
        <ele>1542.57</ele>
        <time>2011-06-26T12:33:33Z</time>
      </trkpt>
      <trkpt lat="45.52578" lon="6.90891">
        <ele>1546.42</ele>
        <time>2011-06-26T12:33:34Z</time>
      </trkpt>
      <trkpt lat="45.52578" lon="6.90891">
        <ele>1546.42</ele>
        <time>2011-06-26T12:33:35Z</time>
      </trkpt>
      <trkpt lat="45.5258" lon="6.90889">
        <ele>1544.98</ele>
        <time>2011-06-26T12:33:38Z</time>
      </trkpt>
      <trkpt lat="45.52586" lon="6.90885">
        <ele>1544.98</ele>
        <time>2011-06-26T12:33:44Z</time>
      </trkpt>
      <trkpt lat="45.52589" lon="6.90884">
        <ele>1544.98</ele>
        <time>2011-06-26T12:33:46Z</time>
      </trkpt>
      <trkpt lat="45.52594" lon="6.90882">
        <ele>1543.53</ele>
        <time>2011-06-26T12:33:50Z</time>
      </trkpt>
      <trkpt lat="45.52619" lon="6.90882">
        <ele>1542.09</ele>
        <time>2011-06-26T12:34:02Z</time>
      </trkpt>
      <trkpt lat="45.52629" lon="6.90881">
        <ele>1540.17</ele>
        <time>2011-06-26T12:34:07Z</time>
      </trkpt>
      <trkpt lat="45.52631" lon="6.9088">
        <ele>1540.65</ele>
        <time>2011-06-26T12:34:08Z</time>
      </trkpt>
      <trkpt lat="45.5265" lon="6.90878">
        <ele>1536.8</ele>
        <time>2011-06-26T12:34:17Z</time>
      </trkpt>
      <trkpt lat="45.52664" lon="6.90876">
        <ele>1533.44</ele>
        <time>2011-06-26T12:34:23Z</time>
      </trkpt>
      <trkpt lat="45.52666" lon="6.90876">
        <ele>1533.92</ele>
        <time>2011-06-26T12:34:24Z</time>
      </trkpt>
      <trkpt lat="45.52672" lon="6.90876">
        <ele>1534.88</ele>
        <time>2011-06-26T12:34:26Z</time>
      </trkpt>
      <trkpt lat="45.52689" lon="6.90886">
        <ele>1532.96</ele>
        <time>2011-06-26T12:34:34Z</time>
      </trkpt>
      <trkpt lat="45.52718" lon="6.90882">
        <ele>1530.08</ele>
        <time>2011-06-26T12:34:46Z</time>
      </trkpt>
      <trkpt lat="45.52733" lon="6.90877">
        <ele>1529.11</ele>
        <time>2011-06-26T12:34:53Z</time>
      </trkpt>
      <trkpt lat="45.52753" lon="6.90871">
        <ele>1526.23</ele>
        <time>2011-06-26T12:35:03Z</time>
      </trkpt>
      <trkpt lat="45.52764" lon="6.90865">
        <ele>1526.23</ele>
        <time>2011-06-26T12:35:08Z</time>
      </trkpt>
      <trkpt lat="45.52788" lon="6.90861">
        <ele>1525.27</ele>
        <time>2011-06-26T12:35:19Z</time>
      </trkpt>
      <trkpt lat="45.52801" lon="6.90852">
        <ele>1524.31</ele>
        <time>2011-06-26T12:35:26Z</time>
      </trkpt>
      <trkpt lat="45.52807" lon="6.90847">
        <ele>1525.27</ele>
        <time>2011-06-26T12:35:29Z</time>
      </trkpt>
      <trkpt lat="45.52836" lon="6.90847">
        <ele>1523.35</ele>
        <time>2011-06-26T12:35:42Z</time>
      </trkpt>
      <trkpt lat="45.52857" lon="6.90843">
        <ele>1522.87</ele>
        <time>2011-06-26T12:35:52Z</time>
      </trkpt>
      <trkpt lat="45.5286" lon="6.90843">
        <ele>1522.87</ele>
        <time>2011-06-26T12:35:53Z</time>
      </trkpt>
      <trkpt lat="45.52868" lon="6.90834">
        <ele>1522.87</ele>
        <time>2011-06-26T12:35:58Z</time>
      </trkpt>
      <trkpt lat="45.52871" lon="6.90825">
        <ele>1523.83</ele>
        <time>2011-06-26T12:36:02Z</time>
      </trkpt>
      <trkpt lat="45.52872" lon="6.90824">
        <ele>1523.35</ele>
        <time>2011-06-26T12:36:03Z</time>
      </trkpt>
      <trkpt lat="45.52897" lon="6.90811">
        <ele>1523.83</ele>
        <time>2011-06-26T12:36:16Z</time>
      </trkpt>
      <trkpt lat="45.52898" lon="6.9081">
        <ele>1523.83</ele>
        <time>2011-06-26T12:36:17Z</time>
      </trkpt>
      <trkpt lat="45.52915" lon="6.90806">
        <ele>1520.94</ele>
        <time>2011-06-26T12:36:26Z</time>
      </trkpt>
      <trkpt lat="45.5292" lon="6.90805">
        <ele>1519.98</ele>
        <time>2011-06-26T12:36:28Z</time>
      </trkpt>
      <trkpt lat="45.52928" lon="6.908">
        <ele>1519.5</ele>
        <time>2011-06-26T12:36:32Z</time>
      </trkpt>
      <trkpt lat="45.52944" lon="6.9079">
        <ele>1518.06</ele>
        <time>2011-06-26T12:36:41Z</time>
      </trkpt>
      <trkpt lat="45.52971" lon="6.90786">
        <ele>1517.1</ele>
        <time>2011-06-26T12:36:53Z</time>
      </trkpt>
      <trkpt lat="45.52989" lon="6.90791">
        <ele>1513.73</ele>
        <time>2011-06-26T12:37:02Z</time>
      </trkpt>
      <trkpt lat="45.52992" lon="6.90792">
        <ele>1513.25</ele>
        <time>2011-06-26T12:37:03Z</time>
      </trkpt>
      <trkpt lat="45.53008" lon="6.90799">
        <ele>1510.37</ele>
        <time>2011-06-26T12:37:12Z</time>
      </trkpt>
      <trkpt lat="45.53017" lon="6.90801">
        <ele>1507.97</ele>
        <time>2011-06-26T12:37:16Z</time>
      </trkpt>
      <trkpt lat="45.53033" lon="6.9081">
        <ele>1507.97</ele>
        <time>2011-06-26T12:37:23Z</time>
      </trkpt>
      <trkpt lat="45.53046" lon="6.90809">
        <ele>1506.04</ele>
        <time>2011-06-26T12:37:30Z</time>
      </trkpt>
      <trkpt lat="45.53058" lon="6.90801">
        <ele>1506.04</ele>
        <time>2011-06-26T12:37:37Z</time>
      </trkpt>
      <trkpt lat="45.53074" lon="6.90802">
        <ele>1507.97</ele>
        <time>2011-06-26T12:37:49Z</time>
      </trkpt>
      <trkpt lat="45.53076" lon="6.90802">
        <ele>1507.97</ele>
        <time>2011-06-26T12:37:51Z</time>
      </trkpt>
      <trkpt lat="45.53079" lon="6.90806">
        <ele>1508.45</ele>
        <time>2011-06-26T12:37:55Z</time>
      </trkpt>
      <trkpt lat="45.53083" lon="6.9083">
        <ele>1509.41</ele>
        <time>2011-06-26T12:38:04Z</time>
      </trkpt>
      <trkpt lat="45.53084" lon="6.9084">
        <ele>1510.85</ele>
        <time>2011-06-26T12:38:11Z</time>
      </trkpt>
      <trkpt lat="45.53084" lon="6.90843">
        <ele>1511.81</ele>
        <time>2011-06-26T12:38:13Z</time>
      </trkpt>
      <trkpt lat="45.53086" lon="6.9085">
        <ele>1512.77</ele>
        <time>2011-06-26T12:38:18Z</time>
      </trkpt>
      <trkpt lat="45.53088" lon="6.90859">
        <ele>1510.85</ele>
        <time>2011-06-26T12:38:23Z</time>
      </trkpt>
      <trkpt lat="45.53101" lon="6.90884">
        <ele>1509.89</ele>
        <time>2011-06-26T12:38:40Z</time>
      </trkpt>
      <trkpt lat="45.5311" lon="6.90899">
        <ele>1510.85</ele>
        <time>2011-06-26T12:38:51Z</time>
      </trkpt>
      <trkpt lat="45.53117" lon="6.90902">
        <ele>1512.77</ele>
        <time>2011-06-26T12:38:58Z</time>
      </trkpt>
      <trkpt lat="45.53128" lon="6.9091">
        <ele>1514.69</ele>
        <time>2011-06-26T12:39:09Z</time>
      </trkpt>
      <trkpt lat="45.53149" lon="6.90922">
        <ele>1517.1</ele>
        <time>2011-06-26T12:39:27Z</time>
      </trkpt>
      <trkpt lat="45.53158" lon="6.90927">
        <ele>1517.58</ele>
        <time>2011-06-26T12:39:35Z</time>
      </trkpt>
      <trkpt lat="45.53159" lon="6.90927">
        <ele>1518.54</ele>
        <time>2011-06-26T12:39:36Z</time>
      </trkpt>
      <trkpt lat="45.53177" lon="6.90943">
        <ele>1521.42</ele>
        <time>2011-06-26T12:39:55Z</time>
      </trkpt>
      <trkpt lat="45.53184" lon="6.90953">
        <ele>1522.39</ele>
        <time>2011-06-26T12:40:03Z</time>
      </trkpt>
      <trkpt lat="45.53195" lon="6.90967">
        <ele>1525.27</ele>
        <time>2011-06-26T12:40:13Z</time>
      </trkpt>
      <trkpt lat="45.53196" lon="6.9097">
        <ele>1524.79</ele>
        <time>2011-06-26T12:40:15Z</time>
      </trkpt>
      <trkpt lat="45.53198" lon="6.90976">
        <ele>1526.23</ele>
        <time>2011-06-26T12:40:19Z</time>
      </trkpt>
      <trkpt lat="45.53203" lon="6.90986">
        <ele>1526.23</ele>
        <time>2011-06-26T12:40:25Z</time>
      </trkpt>
      <trkpt lat="45.53208" lon="6.90989">
        <ele>1527.19</ele>
        <time>2011-06-26T12:40:29Z</time>
      </trkpt>
      <trkpt lat="45.53228" lon="6.90984">
        <ele>1524.79</ele>
        <time>2011-06-26T12:40:39Z</time>
      </trkpt>
      <trkpt lat="45.53262" lon="6.90981">
        <ele>1522.39</ele>
        <time>2011-06-26T12:40:53Z</time>
      </trkpt>
      <trkpt lat="45.53267" lon="6.90979">
        <ele>1522.87</ele>
        <time>2011-06-26T12:40:55Z</time>
      </trkpt>
      <trkpt lat="45.53288" lon="6.9097">
        <ele>1515.18</ele>
        <time>2011-06-26T12:41:07Z</time>
      </trkpt>
      <trkpt lat="45.53288" lon="6.90969">
        <ele>1520.94</ele>
        <time>2011-06-26T12:41:09Z</time>
      </trkpt>
      <trkpt lat="45.53288" lon="6.90971">
        <ele>1522.87</ele>
        <time>2011-06-26T12:41:13Z</time>
      </trkpt>
      <trkpt lat="45.53314" lon="6.90972">
        <ele>1525.27</ele>
        <time>2011-06-26T12:41:29Z</time>
      </trkpt>
      <trkpt lat="45.53326" lon="6.90969">
        <ele>1526.71</ele>
        <time>2011-06-26T12:41:35Z</time>
      </trkpt>
      <trkpt lat="45.53361" lon="6.90967">
        <ele>1528.63</ele>
        <time>2011-06-26T12:41:51Z</time>
      </trkpt>
      <trkpt lat="45.53405" lon="6.90956">
        <ele>1527.67</ele>
        <time>2011-06-26T12:42:09Z</time>
      </trkpt>
    </trkseg>
  </trk>
</gpx>